Nicolas Descalzi, Argentina
Current Conditions -  °F | °C
As of 7:00 AM on Monday 26 Jan 2015 (Local Time) from SAZM Reporting Station
Broken Clouds Broken Clouds  
Wind Chill: 64°   Ceiling: 20000
Heat Index: 64°   Visibility: 6mi
Dew Point: 63°   Wind: 7mph
Humidity: 94%   Direction: 340°NNW
Pressure: 29.88"   Gusts: NA
Location:  38.43°S, 60.99°W
Report Text: SAZM 261000Z 34006KT 9999 FEW032 SCT045FEW050CB BKN200 18/17 Q1012
Loading
Personal Weather Stations






























Interactive Weather Map New forecast layout! Learn more

10-Day Weather Forecast

Advertisements
Track Severe Weather on mobile